createdAt,value
2022-09-06T00:01:26.000Z,287.49
2022-09-06T00:03:32.000Z,287.49
2022-09-06T00:04:59.000Z,287.48
2022-09-06T00:07:05.000Z,287.49
2022-09-06T00:08:31.000Z,287.48
2022-09-06T00:10:38.000Z,287.46
2022-09-06T00:12:04.000Z,287.45
2022-09-06T00:14:10.000Z,287.42
2022-09-06T00:15:37.000Z,287.41
2022-09-06T00:17:43.000Z,287.41
2022-09-06T00:19:09.000Z,287.41
2022-09-06T00:21:15.000Z,287.41
2022-09-06T00:24:07.000Z,287.4
2022-09-06T00:25:33.000Z,287.38
2022-09-06T00:27:39.000Z,287.35
2022-09-06T00:29:06.000Z,287.35
2022-09-06T00:31:12.000Z,287.35
2022-09-06T00:32:39.000Z,287.34
2022-09-06T00:34:45.000Z,287.33
2022-09-06T00:36:11.000Z,287.31
2022-09-06T00:38:17.000Z,287.3
2022-09-06T00:39:44.000Z,287.3
2022-09-06T00:41:50.000Z,287.3
2022-09-06T00:43:17.000Z,287.3
2022-09-06T00:45:23.000Z,287.27
2022-09-06T00:46:49.000Z,287.26
2022-09-06T00:48:55.000Z,287.26
2022-09-06T00:50:22.000Z,287.24
2022-09-06T00:52:28.000Z,287.21
2022-09-06T00:53:54.000Z,287.2
2022-09-06T00:56:01.000Z,287.18
2022-09-06T00:57:27.000Z,287.18
2022-09-06T00:59:33.000Z,287.15
2022-09-06T01:02:24.000Z,287.14
2022-09-06T01:03:51.000Z,287.15
2022-09-06T01:05:57.000Z,287.12
2022-09-06T01:07:24.000Z,287.11
2022-09-06T01:09:30.000Z,287.05
2022-09-06T01:10:56.000Z,287.01
2022-09-06T01:13:02.000Z,287.01
2022-09-06T01:14:29.000Z,287.01
2022-09-06T01:16:35.000Z,287
2022-09-06T01:18:02.000Z,286.98
2022-09-06T01:20:08.000Z,286.97
2022-09-06T01:21:34.000Z,286.95
2022-09-06T01:23:40.000Z,286.94
2022-09-06T01:25:07.000Z,286.94
2022-09-06T01:27:13.000Z,286.93
2022-09-06T01:28:39.000Z,286.93
2022-09-06T01:30:45.000Z,286.97
2022-09-06T01:32:12.000Z,286.95
2022-09-06T01:34:18.000Z,286.94
2022-09-06T01:35:45.000Z,286.93
2022-09-06T01:37:51.000Z,286.91
2022-09-06T01:40:42.000Z,286.91
2022-09-06T01:42:09.000Z,286.9
2022-09-06T01:44:15.000Z,286.91
2022-09-06T01:45:41.000Z,286.93
2022-09-06T01:47:47.000Z,286.91
2022-09-06T01:49:14.000Z,286.91
2022-09-06T01:51:20.000Z,286.9
2022-09-06T01:52:46.000Z,286.88
2022-09-06T01:54:53.000Z,286.87
2022-09-06T01:56:19.000Z,286.9
2022-09-06T01:58:25.000Z,286.88
2022-09-06T01:59:52.000Z,286.9
2022-09-06T02:01:58.000Z,286.9
2022-09-06T02:03:24.000Z,286.87
2022-09-06T02:05:30.000Z,286.87
2022-09-06T02:06:57.000Z,286.86
2022-09-06T02:09:03.000Z,286.84
2022-09-06T02:10:30.000Z,286.84
2022-09-06T02:12:36.000Z,286.84
2022-09-06T02:14:02.000Z,286.84
2022-09-06T02:16:08.000Z,286.83
2022-09-06T02:19:00.000Z,286.83
2022-09-06T02:20:26.000Z,286.79
2022-09-06T02:22:32.000Z,286.79
2022-09-06T02:23:59.000Z,286.79
2022-09-06T02:26:05.000Z,286.77
2022-09-06T02:27:31.000Z,286.76
2022-09-06T02:29:37.000Z,286.75
2022-09-06T02:31:04.000Z,286.75
2022-09-06T02:33:10.000Z,286.73
2022-09-06T02:34:36.000Z,286.72
2022-09-06T02:36:43.000Z,286.7
2022-09-06T02:38:09.000Z,286.72
2022-09-06T02:40:15.000Z,286.7
2022-09-06T02:41:42.000Z,286.7
2022-09-06T02:43:48.000Z,286.72
2022-09-06T02:45:14.000Z,286.72
2022-09-06T02:47:20.000Z,286.72
2022-09-06T02:48:47.000Z,286.7
2022-09-06T02:50:53.000Z,286.72
2022-09-06T02:52:19.000Z,286.73
2022-09-06T02:54:26.000Z,286.75
2022-09-06T02:57:16.000Z,286.77
2022-09-06T02:58:43.000Z,286.79
2022-09-06T03:00:49.000Z,286.82
2022-09-06T03:02:16.000Z,286.83
2022-09-06T03:04:22.000Z,286.84
2022-09-06T03:05:48.000Z,286.84
2022-09-06T03:07:54.000Z,286.84
2022-09-06T03:09:21.000Z,286.84
2022-09-06T03:11:27.000Z,286.86
2022-09-06T03:12:54.000Z,286.84
2022-09-06T03:15:00.000Z,286.83
2022-09-06T03:16:26.000Z,286.82
2022-09-06T03:18:33.000Z,286.82
2022-09-06T03:19:59.000Z,286.8
2022-09-06T03:22:05.000Z,286.8
2022-09-06T03:23:32.000Z,286.8
2022-09-06T03:25:38.000Z,286.8
2022-09-06T03:27:04.000Z,286.79
2022-09-06T03:29:10.000Z,286.77
2022-09-06T03:30:37.000Z,286.79
2022-09-06T03:32:43.000Z,286.8
2022-09-06T03:35:35.000Z,286.84
2022-09-06T03:37:01.000Z,287.09
2022-09-06T03:39:07.000Z,287.35
2022-09-06T03:40:34.000Z,287.52
2022-09-06T03:42:40.000Z,287.66
2022-09-06T03:44:06.000Z,287.8
2022-09-06T03:46:12.000Z,287.82
2022-09-06T03:47:39.000Z,287.82
2022-09-06T03:49:45.000Z,287.8
2022-09-06T03:51:12.000Z,287.75
2022-09-06T03:53:18.000Z,287.74
2022-09-06T03:54:44.000Z,287.73
2022-09-06T03:56:50.000Z,287.71
2022-09-06T03:58:17.000Z,287.63
2022-09-06T04:00:23.000Z,287.59
2022-09-06T04:01:50.000Z,287.61
2022-09-06T04:03:56.000Z,287.64
2022-09-06T04:05:22.000Z,287.66
2022-09-06T04:07:28.000Z,287.63
2022-09-06T04:08:55.000Z,287.63
2022-09-06T04:11:01.000Z,287.59
2022-09-06T04:13:52.000Z,287.54
2022-09-06T04:15:19.000Z,287.52
2022-09-06T04:17:25.000Z,287.5
2022-09-06T04:18:51.000Z,287.52
2022-09-06T04:20:57.000Z,287.49
2022-09-06T04:22:24.000Z,287.48
2022-09-06T04:24:30.000Z,287.49
2022-09-06T04:25:56.000Z,287.49
2022-09-06T04:28:02.000Z,287.45
2022-09-06T04:29:29.000Z,287.4
2022-09-06T04:31:35.000Z,287.4
2022-09-06T04:33:01.000Z,287.38
2022-09-06T04:35:08.000Z,287.38
2022-09-06T04:36:34.000Z,287.38
2022-09-06T04:38:40.000Z,287.35
2022-09-06T04:40:07.000Z,287.38
2022-09-06T04:42:13.000Z,287.38
2022-09-06T04:43:40.000Z,287.4
2022-09-06T04:45:46.000Z,287.38
2022-09-06T04:47:13.000Z,287.38
2022-09-06T04:49:19.000Z,287.37
2022-09-06T04:52:10.000Z,287.34
2022-09-06T04:53:36.000Z,287.37
2022-09-06T04:55:42.000Z,287.38
2022-09-06T04:57:09.000Z,287.38
2022-09-06T04:59:15.000Z,287.38
2022-09-06T05:00:41.000Z,287.4
2022-09-06T05:02:48.000Z,287.41
2022-09-06T05:04:14.000Z,287.42
2022-09-06T05:06:20.000Z,287.46
2022-09-06T05:07:47.000Z,287.48
2022-09-06T05:09:53.000Z,287.49
2022-09-06T05:11:19.000Z,287.49
2022-09-06T05:13:25.000Z,287.5
2022-09-06T05:14:52.000Z,287.5
2022-09-06T05:16:58.000Z,287.5
2022-09-06T05:18:24.000Z,287.49
2022-09-06T05:20:31.000Z,287.5
2022-09-06T05:21:57.000Z,287.52
2022-09-06T05:24:03.000Z,287.53
2022-09-06T05:25:30.000Z,287.57
2022-09-06T05:27:36.000Z,287.6
2022-09-06T05:30:28.000Z,287.61
2022-09-06T05:31:54.000Z,287.63
2022-09-06T05:34:00.000Z,287.63
2022-09-06T05:35:27.000Z,287.61
2022-09-06T05:37:33.000Z,287.61
2022-09-06T05:38:59.000Z,287.59
2022-09-06T05:41:05.000Z,287.59
2022-09-06T05:42:32.000Z,287.57
2022-09-06T05:44:38.000Z,287.56
2022-09-06T05:46:04.000Z,287.56
2022-09-06T05:48:11.000Z,287.54
2022-09-06T05:49:37.000Z,287.56
2022-09-06T05:51:43.000Z,287.57
2022-09-06T05:53:10.000Z,287.57
2022-09-06T05:55:16.000Z,287.57
2022-09-06T05:56:43.000Z,287.57
2022-09-06T05:58:49.000Z,287.56
2022-09-06T06:00:15.000Z,287.57
2022-09-06T06:02:21.000Z,287.57
2022-09-06T06:03:48.000Z,287.59
2022-09-06T06:05:54.000Z,287.61
2022-09-06T06:08:45.000Z,287.64
2022-09-06T06:10:12.000Z,287.64
2022-09-06T06:12:18.000Z,287.66
2022-09-06T06:13:44.000Z,287.67
2022-09-06T06:15:50.000Z,287.67
2022-09-06T06:17:17.000Z,287.67
2022-09-06T06:19:23.000Z,287.68
2022-09-06T06:20:50.000Z,287.74
2022-09-06T06:22:56.000Z,287.77
2022-09-06T06:24:22.000Z,287.77
2022-09-06T06:26:28.000Z,287.8
2022-09-06T06:27:55.000Z,287.85
2022-09-06T06:30:01.000Z,287.86
2022-09-06T06:31:28.000Z,287.93
2022-09-06T06:33:34.000Z,287.95
2022-09-06T06:35:00.000Z,287.99
2022-09-06T06:37:06.000Z,288.02
2022-09-06T06:38:33.000Z,288.03
2022-09-06T06:40:39.000Z,288.07
2022-09-06T06:42:05.000Z,288.12
2022-09-06T06:44:12.000Z,288.16
2022-09-06T06:47:03.000Z,288.25
2022-09-06T06:48:29.000Z,288.35
2022-09-06T06:50:35.000Z,288.43
2022-09-06T06:52:02.000Z,288.5
2022-09-06T06:54:08.000Z,288.54
2022-09-06T06:55:34.000Z,288.61
2022-09-06T06:57:40.000Z,288.67
2022-09-06T06:59:07.000Z,288.74
2022-09-06T07:01:13.000Z,288.79
2022-09-06T07:02:40.000Z,288.82
2022-09-06T07:04:46.000Z,288.85
2022-09-06T07:06:12.000Z,288.9
2022-09-06T07:08:19.000Z,288.97
2022-09-06T07:12:21.000Z,289.03
2022-09-06T07:13:48.000Z,289.05
2022-09-06T07:15:54.000Z,289.1
2022-09-06T07:17:21.000Z,289.12
2022-09-06T07:21:23.000Z,289.16
2022-09-06T07:23:45.000Z,289.16
2022-09-06T07:28:55.000Z,289.23
2022-09-06T07:31:02.000Z,289.26
2022-09-06T07:32:28.000Z,289.28
2022-09-06T07:34:34.000Z,289.3
2022-09-06T07:36:01.000Z,289.33
2022-09-06T07:38:07.000Z,289.36
2022-09-06T07:39:34.000Z,289.37
2022-09-06T07:41:40.000Z,289.4
2022-09-06T07:43:06.000Z,289.43
2022-09-06T07:45:13.000Z,289.46
2022-09-06T07:46:39.000Z,289.51
2022-09-06T07:48:45.000Z,289.54
2022-09-06T07:52:48.000Z,289.66
2022-09-06T07:54:43.000Z,289.76
2022-09-06T07:56:50.000Z,289.84
2022-09-06T07:58:16.000Z,289.9
2022-09-06T08:00:22.000Z,289.93
2022-09-06T08:01:49.000Z,290.05
2022-09-06T08:03:55.000Z,290.16
2022-09-06T08:08:43.000Z,290.44
2022-09-06T08:11:05.000Z,290.56
2022-09-06T08:12:32.000Z,290.7
2022-09-06T08:14:38.000Z,290.77
2022-09-06T08:16:04.000Z,290.86
2022-09-06T08:18:11.000Z,290.91
2022-09-06T08:19:37.000Z,290.99
2022-09-06T08:21:43.000Z,291.09
2022-09-06T08:23:10.000Z,291.1
2022-09-06T08:25:16.000Z,291.14
2022-09-06T08:26:42.000Z,291.2
2022-09-06T08:28:49.000Z,291.24
2022-09-06T08:30:15.000Z,291.27
2022-09-06T08:32:21.000Z,291.32
2022-09-06T08:33:48.000Z,291.36
2022-09-06T08:35:54.000Z,291.42
2022-09-06T08:37:21.000Z,291.5
2022-09-06T08:39:31.000Z,291.6
2022-09-06T08:40:57.000Z,291.74
2022-09-06T08:43:03.000Z,291.81
2022-09-06T08:45:55.000Z,291.93
2022-09-06T08:47:22.000Z,292
2022-09-06T08:49:28.000Z,292.08
2022-09-06T08:50:54.000Z,292.19
2022-09-06T08:53:00.000Z,292.26
2022-09-06T08:54:44.000Z,292.37
2022-09-06T08:56:50.000Z,292.46
2022-09-06T08:58:16.000Z,292.53
2022-09-06T09:00:22.000Z,292.61
2022-09-06T09:01:49.000Z,292.72
2022-09-06T09:03:55.000Z,292.82
2022-09-06T09:05:22.000Z,292.89
2022-09-06T09:07:28.000Z,292.96
2022-09-06T09:08:54.000Z,293.08
2022-09-06T09:11:01.000Z,293.22
2022-09-06T09:12:27.000Z,293.29
2022-09-06T09:14:33.000Z,293.36
2022-09-06T09:16:00.000Z,293.51
2022-09-06T09:18:06.000Z,293.59
2022-09-06T09:19:33.000Z,293.69
2022-09-06T09:21:39.000Z,293.77
2022-09-06T09:24:30.000Z,293.91
2022-09-06T09:25:56.000Z,294.05
2022-09-06T09:28:03.000Z,294.15
2022-09-06T09:29:29.000Z,294.33
2022-09-06T09:31:41.000Z,294.4
2022-09-06T09:33:08.000Z,294.45
2022-09-06T09:35:14.000Z,294.56
2022-09-06T09:36:41.000Z,294.64
2022-09-06T09:39:48.000Z,294.74
2022-09-06T09:41:15.000Z,294.84
2022-09-06T09:43:21.000Z,294.98
2022-09-06T09:44:48.000Z,295.13
2022-09-06T09:46:54.000Z,295.21
2022-09-06T09:48:21.000Z,295.24
2022-09-06T09:50:27.000Z,295.28
2022-09-06T09:51:53.000Z,295.38
2022-09-06T09:53:59.000Z,295.56
2022-09-06T09:55:26.000Z,295.67
2022-09-06T09:57:32.000Z,295.81
2022-09-06T09:58:59.000Z,295.9
2022-09-06T10:01:05.000Z,296.05
2022-09-06T10:05:53.000Z,296.21
2022-09-06T10:08:04.000Z,296.23
2022-09-06T10:09:31.000Z,296.23
2022-09-06T10:11:37.000Z,296.28
2022-09-06T10:13:04.000Z,296.4
2022-09-06T10:15:10.000Z,296.37
2022-09-06T10:16:36.000Z,296.41
2022-09-06T10:18:42.000Z,296.44
2022-09-06T10:20:09.000Z,296.43
2022-09-06T10:22:15.000Z,296.39
2022-09-06T10:26:18.000Z,296.51
2022-09-06T10:27:44.000Z,296.64
2022-09-06T10:30:07.000Z,296.8
2022-09-06T10:31:34.000Z,297.02
2022-09-06T10:33:40.000Z,297.18
2022-09-06T10:35:06.000Z,297.3
2022-09-06T10:37:13.000Z,297.52
2022-09-06T10:38:39.000Z,297.83
2022-09-06T10:40:45.000Z,297.95
2022-09-06T10:43:36.000Z,298.05
2022-09-06T10:45:03.000Z,298.17
2022-09-06T10:47:09.000Z,298.27
2022-09-06T10:48:36.000Z,298.42
2022-09-06T10:50:42.000Z,298.49
2022-09-06T10:52:08.000Z,298.55
2022-09-06T10:54:15.000Z,298.66
2022-09-06T10:55:41.000Z,298.74
2022-09-06T10:57:51.000Z,298.8
2022-09-06T10:59:44.000Z,298.98
2022-09-06T11:01:50.000Z,299.07
2022-09-06T11:05:53.000Z,299.11
2022-09-06T11:07:19.000Z,299.17
2022-09-06T11:09:25.000Z,299.18
2022-09-06T11:10:52.000Z,299.21
2022-09-06T11:12:58.000Z,299.26
2022-09-06T11:14:25.000Z,299.28
2022-09-06T11:16:31.000Z,299.31
2022-09-06T11:17:57.000Z,299.4
2022-09-06T11:20:04.000Z,299.45
2022-09-06T11:22:55.000Z,299.53
2022-09-06T11:24:21.000Z,299.58
2022-09-06T11:26:27.000Z,299.6
2022-09-06T11:27:54.000Z,299.72
2022-09-06T11:30:04.000Z,299.84
2022-09-06T11:34:06.000Z,299.97
2022-09-06T11:35:33.000Z,300.13
2022-09-06T11:37:39.000Z,300.21
2022-09-06T11:39:06.000Z,300.03
2022-09-06T11:41:12.000Z,299.84
2022-09-06T11:42:38.000Z,299.68
2022-09-06T11:44:44.000Z,299.54
2022-09-06T11:46:11.000Z,299.54
2022-09-06T11:48:17.000Z,299.6
2022-09-06T11:49:44.000Z,299.74
2022-09-06T11:51:50.000Z,299.88
2022-09-06T11:53:17.000Z,299.99
2022-09-06T11:55:23.000Z,300.07
2022-09-06T11:56:49.000Z,300.18
2022-09-06T11:58:56.000Z,300.28
2022-09-06T12:01:47.000Z,300.37
2022-09-06T12:05:50.000Z,300.1
2022-09-06T12:07:16.000Z,299.97
2022-09-06T12:09:22.000Z,300.04
2022-09-06T12:10:49.000Z,300.06
2022-09-06T12:12:55.000Z,299.92
2022-09-06T12:14:22.000Z,299.84
2022-09-06T12:16:28.000Z,299.95
2022-09-06T12:17:55.000Z,300.09
2022-09-06T12:20:01.000Z,300.18
2022-09-06T12:21:27.000Z,300.29
2022-09-06T12:23:33.000Z,300.33
2022-09-06T12:25:00.000Z,300.42
2022-09-06T12:27:06.000Z,300.5
2022-09-06T12:28:33.000Z,300.65
2022-09-06T12:30:39.000Z,300.79
2022-09-06T12:32:05.000Z,300.78
2022-09-06T12:34:11.000Z,300.86
2022-09-06T12:35:38.000Z,300.89
2022-09-06T12:38:04.000Z,300.79
2022-09-06T12:40:56.000Z,300.87
2022-09-06T12:42:22.000Z,301.07
2022-09-06T12:44:28.000Z,301.21
2022-09-06T12:45:55.000Z,301.32
2022-09-06T12:48:01.000Z,301.38
2022-09-06T12:49:27.000Z,301.53
2022-09-06T12:51:34.000Z,301.59
2022-09-06T12:53:00.000Z,301.61
2022-09-06T12:55:06.000Z,301.69
2022-09-06T12:56:33.000Z,301.76
2022-09-06T12:58:39.000Z,301.72
2022-09-06T13:00:06.000Z,301.68
2022-09-06T13:02:12.000Z,301.58
2022-09-06T13:03:38.000Z,301.46
2022-09-06T13:05:45.000Z,301.59
2022-09-06T13:07:11.000Z,301.66
2022-09-06T13:09:17.000Z,301.75
2022-09-06T13:10:44.000Z,301.8
2022-09-06T13:12:50.000Z,301.92
2022-09-06T13:14:17.000Z,302.02
2022-09-06T13:16:23.000Z,302.17
2022-09-06T13:19:14.000Z,302.24
2022-09-06T13:20:41.000Z,301.91
2022-09-06T13:22:47.000Z,301.65
2022-09-06T13:24:13.000Z,301.42
2022-09-06T13:26:19.000Z,301.26
2022-09-06T13:27:46.000Z,301.11
2022-09-06T13:29:52.000Z,300.94
2022-09-06T13:31:19.000Z,300.82
2022-09-06T13:33:25.000Z,300.71
2022-09-06T13:34:51.000Z,300.64
2022-09-06T13:36:58.000Z,300.75
2022-09-06T13:38:24.000Z,301.04
2022-09-06T13:40:30.000Z,301.33
2022-09-06T13:41:57.000Z,301.69
2022-09-06T13:44:03.000Z,301.97
2022-09-06T13:45:30.000Z,302.15
2022-09-06T13:47:36.000Z,302.22
2022-09-06T13:49:02.000Z,302.4
2022-09-06T13:51:08.000Z,302.58
2022-09-06T13:52:35.000Z,302.69
2022-09-06T13:54:41.000Z,302.59
2022-09-06T13:57:32.000Z,302.17
2022-09-06T13:58:59.000Z,301.99
2022-09-06T14:01:05.000Z,302.12
2022-09-06T14:02:31.000Z,302.31
2022-09-06T14:04:38.000Z,302.54
2022-09-06T14:06:04.000Z,302.77
2022-09-06T14:08:10.000Z,302.9
2022-09-06T14:09:37.000Z,302.99
2022-09-06T14:11:43.000Z,303.02
2022-09-06T14:13:14.000Z,303.14
2022-09-06T14:15:20.000Z,303.19
2022-09-06T14:16:47.000Z,303.24
2022-09-06T14:18:53.000Z,303.31
2022-09-06T14:20:20.000Z,303.35
2022-09-06T14:22:26.000Z,303.44
2022-09-06T14:23:52.000Z,303.42
2022-09-06T14:25:58.000Z,303.34
2022-09-06T14:27:25.000Z,303.14
2022-09-06T14:29:31.000Z,302.91
2022-09-06T14:30:58.000Z,302.68
2022-09-06T14:33:04.000Z,302.54
2022-09-06T14:35:55.000Z,302.54
2022-09-06T14:37:21.000Z,302.54
2022-09-06T14:39:28.000Z,302.61
2022-09-06T14:40:54.000Z,302.73
2022-09-06T14:43:00.000Z,302.81
2022-09-06T14:44:27.000Z,302.87
2022-09-06T14:46:33.000Z,302.81
2022-09-06T14:48:00.000Z,302.81
2022-09-06T14:50:06.000Z,302.86
2022-09-06T14:51:33.000Z,302.73
2022-09-06T14:53:39.000Z,302.72
2022-09-06T14:55:07.000Z,302.99
2022-09-06T14:57:13.000Z,303.23
2022-09-06T14:58:40.000Z,303.46
2022-09-06T15:00:46.000Z,303.53
2022-09-06T15:02:12.000Z,303.76
2022-09-06T15:04:19.000Z,303.9
2022-09-06T15:05:45.000Z,303.73
2022-09-06T15:07:51.000Z,303.69
2022-09-06T15:09:18.000Z,303.85
2022-09-06T15:11:24.000Z,303.94
2022-09-06T15:14:15.000Z,303.87
2022-09-06T15:15:42.000Z,303.84
2022-09-06T15:17:48.000Z,303.91
2022-09-06T15:19:14.000Z,303.83
2022-09-06T15:21:21.000Z,303.83
2022-09-06T15:22:47.000Z,303.76
2022-09-06T15:24:54.000Z,303.6
2022-09-06T15:26:20.000Z,303.49
2022-09-06T15:28:26.000Z,303.53
2022-09-06T15:29:53.000Z,303.6
2022-09-06T15:31:59.000Z,303.6
2022-09-06T15:33:26.000Z,303.41
2022-09-06T15:35:32.000Z,303.1
2022-09-06T15:36:58.000Z,302.9
2022-09-06T15:39:04.000Z,302.7
2022-09-06T15:40:31.000Z,302.49
2022-09-06T15:42:37.000Z,302.29
2022-09-06T15:44:04.000Z,302.29
2022-09-06T15:46:10.000Z,302.37
2022-09-06T15:47:36.000Z,302.59
2022-09-06T15:49:43.000Z,302.7
2022-09-06T15:52:34.000Z,302.93
2022-09-06T15:54:00.000Z,302.86
2022-09-06T15:56:06.000Z,302.69
2022-09-06T15:57:33.000Z,302.69
2022-09-06T15:59:39.000Z,302.52
2022-09-06T16:01:06.000Z,302.54
2022-09-06T16:03:12.000Z,302.7
2022-09-06T16:04:38.000Z,302.66
2022-09-06T16:06:45.000Z,302.54
2022-09-06T16:08:11.000Z,302.34
2022-09-06T16:10:17.000Z,302.29
2022-09-06T16:11:44.000Z,302.12
2022-09-06T16:13:50.000Z,302.09
2022-09-06T16:15:16.000Z,301.99
2022-09-06T16:17:23.000Z,301.95
2022-09-06T16:18:49.000Z,301.87
2022-09-06T16:20:55.000Z,301.69
2022-09-06T16:22:22.000Z,301.62
2022-09-06T16:24:28.000Z,301.57
2022-09-06T16:25:54.000Z,301.46
2022-09-06T16:28:01.000Z,301.49
2022-09-06T16:30:52.000Z,301.45
2022-09-06T16:32:19.000Z,301.4
2022-09-06T16:34:25.000Z,301.46
2022-09-06T16:35:51.000Z,301.5
2022-09-06T16:37:58.000Z,301.51
2022-09-06T16:39:24.000Z,301.51
2022-09-06T16:41:30.000Z,301.51
2022-09-06T16:42:57.000Z,301.43
2022-09-06T16:45:03.000Z,301.4
2022-09-06T16:46:30.000Z,301.39
2022-09-06T16:48:36.000Z,301.36
2022-09-06T16:50:02.000Z,301.31
2022-09-06T16:52:08.000Z,301.11
2022-09-06T16:53:35.000Z,300.86
2022-09-06T16:55:41.000Z,300.68
2022-09-06T16:57:08.000Z,300.49
2022-09-06T16:59:14.000Z,300.3
2022-09-06T17:00:41.000Z,300.03
2022-09-06T17:02:47.000Z,299.9
2022-09-06T17:04:13.000Z,299.78
2022-09-06T17:06:19.000Z,299.72
2022-09-06T17:09:11.000Z,299.63
2022-09-06T17:10:37.000Z,299.52
2022-09-06T17:12:43.000Z,299.45
2022-09-06T17:14:10.000Z,299.35
2022-09-06T17:16:16.000Z,299.31
2022-09-06T17:17:48.000Z,299.2
2022-09-06T17:19:54.000Z,299.17
2022-09-06T17:21:21.000Z,299.07
2022-09-06T17:23:27.000Z,298.95
2022-09-06T17:24:53.000Z,298.89
2022-09-06T17:27:00.000Z,298.81
2022-09-06T17:28:26.000Z,298.67
2022-09-06T17:30:32.000Z,298.65
2022-09-06T17:31:59.000Z,298.58
2022-09-06T17:34:05.000Z,298.52
2022-09-06T17:35:32.000Z,298.45
2022-09-06T17:37:38.000Z,298.37
2022-09-06T17:39:04.000Z,298.3
2022-09-06T17:41:11.000Z,298.22
2022-09-06T17:42:37.000Z,298.12
2022-09-06T17:44:43.000Z,297.99
2022-09-06T17:47:34.000Z,297.87
2022-09-06T17:49:01.000Z,297.71
2022-09-06T17:51:07.000Z,297.66
2022-09-06T17:52:33.000Z,297.53
2022-09-06T17:54:40.000Z,297.46
2022-09-06T17:56:06.000Z,297.33
2022-09-06T17:58:12.000Z,297.19
2022-09-06T17:59:39.000Z,297.04
2022-09-06T18:01:45.000Z,296.89
2022-09-06T18:03:12.000Z,296.72
2022-09-06T18:05:18.000Z,296.64
2022-09-06T18:06:45.000Z,296.54
2022-09-06T18:08:51.000Z,296.41
2022-09-06T18:10:18.000Z,296.28
2022-09-06T18:12:24.000Z,296.19
2022-09-06T18:13:50.000Z,296.04
2022-09-06T18:15:56.000Z,295.94
2022-09-06T18:17:23.000Z,295.78
2022-09-06T18:19:29.000Z,295.72
2022-09-06T18:20:56.000Z,295.6
2022-09-06T18:23:02.000Z,295.49
2022-09-06T18:25:53.000Z,295.35
2022-09-06T18:27:20.000Z,295.24
2022-09-06T18:29:26.000Z,295.17
2022-09-06T18:30:52.000Z,295.06
2022-09-06T18:32:58.000Z,294.98
2022-09-06T18:34:25.000Z,294.91
2022-09-06T18:36:31.000Z,294.85
2022-09-06T18:37:59.000Z,294.74
2022-09-06T18:40:05.000Z,294.67
2022-09-06T18:41:31.000Z,294.59
2022-09-06T18:43:38.000Z,294.53
2022-09-06T18:45:04.000Z,294.47
2022-09-06T18:47:10.000Z,294.44
2022-09-06T18:48:37.000Z,294.34
2022-09-06T18:50:43.000Z,294.3
2022-09-06T18:52:10.000Z,294.26
2022-09-06T18:54:16.000Z,294.23
2022-09-06T18:55:42.000Z,294.17
2022-09-06T18:57:48.000Z,294.16
2022-09-06T18:59:15.000Z,294.13
2022-09-06T19:01:21.000Z,294.09
2022-09-06T19:04:13.000Z,294.02
2022-09-06T19:05:39.000Z,293.94
2022-09-06T19:07:45.000Z,293.89
2022-09-06T19:09:12.000Z,293.88
2022-09-06T19:11:18.000Z,293.92
2022-09-06T19:12:44.000Z,294.12
2022-09-06T19:14:50.000Z,294.33
2022-09-06T19:16:17.000Z,294.48
2022-09-06T19:18:23.000Z,294.59
2022-09-06T19:19:50.000Z,294.67
2022-09-06T19:21:56.000Z,294.74
2022-09-06T19:23:22.000Z,294.78
2022-09-06T19:25:29.000Z,294.78
2022-09-06T19:26:55.000Z,294.71
2022-09-06T19:29:01.000Z,294.63
2022-09-06T19:30:28.000Z,294.47
2022-09-06T19:32:34.000Z,294.38
2022-09-06T19:34:00.000Z,294.26
2022-09-06T19:36:07.000Z,294.17
2022-09-06T19:37:38.000Z,294.09
2022-09-06T19:39:44.000Z,294.05
2022-09-06T19:42:36.000Z,293.96
2022-09-06T19:44:02.000Z,293.87
2022-09-06T19:46:08.000Z,293.77
2022-09-06T19:47:35.000Z,293.7
2022-09-06T19:49:41.000Z,293.63
2022-09-06T19:51:08.000Z,293.55
2022-09-06T19:53:14.000Z,293.48
2022-09-06T19:54:40.000Z,293.41
2022-09-06T19:56:46.000Z,293.38
2022-09-06T19:58:13.000Z,293.34
2022-09-06T20:00:19.000Z,293.31
2022-09-06T20:01:46.000Z,293.27
2022-09-06T20:03:52.000Z,293.24
2022-09-06T20:05:19.000Z,293.19
2022-09-06T20:07:25.000Z,293.15
2022-09-06T20:08:51.000Z,293.08
2022-09-06T20:10:57.000Z,293.05
2022-09-06T20:12:24.000Z,292.98
2022-09-06T20:14:30.000Z,292.96
2022-09-06T20:15:57.000Z,292.96
2022-09-06T20:18:03.000Z,292.91
2022-09-06T20:20:54.000Z,292.87
2022-09-06T20:22:21.000Z,292.83
2022-09-06T20:24:27.000Z,292.79
2022-09-06T20:25:53.000Z,292.75
2022-09-06T20:28:00.000Z,292.73
2022-09-06T20:29:26.000Z,292.68
2022-09-06T20:31:32.000Z,292.66
2022-09-06T20:32:59.000Z,292.64
2022-09-06T20:35:05.000Z,292.61
2022-09-06T20:36:32.000Z,292.6
2022-09-06T20:38:38.000Z,292.57
2022-09-06T20:40:04.000Z,292.5
2022-09-06T20:42:11.000Z,292.41
2022-09-06T20:43:37.000Z,292.3
2022-09-06T20:45:43.000Z,292.28
2022-09-06T20:47:10.000Z,292.23
2022-09-06T20:49:16.000Z,292.19
2022-09-06T20:50:43.000Z,292.14
2022-09-06T20:52:49.000Z,292.09
2022-09-06T20:54:15.000Z,291.99
2022-09-06T20:56:22.000Z,291.86
2022-09-06T20:59:13.000Z,291.76
2022-09-06T21:00:40.000Z,291.74
2022-09-06T21:02:46.000Z,291.69
2022-09-06T21:04:12.000Z,291.63
2022-09-06T21:06:18.000Z,291.66
2022-09-06T21:07:45.000Z,291.62
2022-09-06T21:09:51.000Z,291.55
2022-09-06T21:11:18.000Z,291.5
2022-09-06T21:13:24.000Z,291.52
2022-09-06T21:14:50.000Z,291.52
2022-09-06T21:16:56.000Z,291.5
2022-09-06T21:18:23.000Z,291.42
2022-09-06T21:20:29.000Z,291.38
2022-09-06T21:21:56.000Z,291.35
2022-09-06T21:24:02.000Z,291.3
2022-09-06T21:25:28.000Z,291.28
2022-09-06T21:27:34.000Z,291.24
2022-09-06T21:29:01.000Z,291.2
2022-09-06T21:31:07.000Z,291.1
2022-09-06T21:32:34.000Z,291.04
2022-09-06T21:34:40.000Z,291.03
2022-09-06T21:37:31.000Z,291
2022-09-06T21:38:58.000Z,290.98
2022-09-06T21:41:04.000Z,290.93
2022-09-06T21:42:30.000Z,290.89
2022-09-06T21:44:36.000Z,290.88
2022-09-06T21:46:03.000Z,290.84
2022-09-06T21:48:09.000Z,290.78
2022-09-06T21:49:35.000Z,290.72
2022-09-06T21:51:41.000Z,290.7
2022-09-06T21:53:08.000Z,290.66
2022-09-06T21:55:14.000Z,290.62
2022-09-06T21:56:42.000Z,290.59
2022-09-06T21:58:48.000Z,290.59
2022-09-06T22:00:14.000Z,290.62
2022-09-06T22:02:20.000Z,290.6
2022-09-06T22:03:47.000Z,290.6
2022-09-06T22:05:53.000Z,290.59
2022-09-06T22:07:20.000Z,290.62
2022-09-06T22:09:26.000Z,290.56
2022-09-06T22:10:52.000Z,290.49
2022-09-06T22:12:59.000Z,290.51
2022-09-06T22:15:50.000Z,290.46
2022-09-06T22:17:16.000Z,290.45
2022-09-06T22:19:23.000Z,290.45
2022-09-06T22:20:49.000Z,290.42
2022-09-06T22:22:55.000Z,290.38
2022-09-06T22:24:22.000Z,290.33
2022-09-06T22:26:28.000Z,290.3
2022-09-06T22:27:54.000Z,290.25
2022-09-06T22:30:00.000Z,290.23
2022-09-06T22:31:27.000Z,290.19
2022-09-06T22:33:33.000Z,290.18
2022-09-06T22:35:00.000Z,290.12
2022-09-06T22:37:06.000Z,290.05
2022-09-06T22:38:33.000Z,290.01
2022-09-06T22:40:39.000Z,289.97
2022-09-06T22:42:05.000Z,289.95
2022-09-06T22:44:11.000Z,289.9
2022-09-06T22:45:38.000Z,289.87
2022-09-06T22:47:44.000Z,289.86
2022-09-06T22:49:10.000Z,289.83
2022-09-06T22:51:17.000Z,289.83
2022-09-06T22:54:07.000Z,289.79
2022-09-06T22:55:34.000Z,289.76
2022-09-06T22:57:40.000Z,289.73
2022-09-06T22:59:07.000Z,289.68
2022-09-06T23:01:13.000Z,289.66
2022-09-06T23:02:40.000Z,289.63
2022-09-06T23:04:46.000Z,289.58
2022-09-06T23:06:12.000Z,289.54
2022-09-06T23:08:18.000Z,289.52
2022-09-06T23:09:45.000Z,289.49
2022-09-06T23:11:51.000Z,289.46
2022-09-06T23:13:17.000Z,289.48
2022-09-06T23:15:23.000Z,289.44
2022-09-06T23:16:50.000Z,289.44
2022-09-06T23:18:56.000Z,289.46